Time;durP1;ratioP1;P1;durP2;ratioP2;P2;SDS_P1;SDS_P2;PMS_P1;PMS_P2;Temp;Humidity;BMP_temperature;BMP_pressure;BME280_temperature;BME280_humidity;BME280_pressure;Samples;Min_cycle;Max_cycle;Signal;HPM_P1;HPM_P2
2021/11/18 00:01:08;0.00;0.00;0.62;0.00;0.00;0.62;1.93;1.10;;;22.00;28.40;;;;;;2237958;62;20364;-65
2021/11/18 00:03:53;0.00;0.00;0.62;0.00;0.00;0.62;1.80;1.20;;;22.00;28.40;;;;;;2237052;62;20644;-65
2021/11/18 00:06:38;0.00;0.00;0.62;0.00;0.00;0.62;1.67;1.10;;;22.00;28.40;;;;;;2237689;62;20440;-63
2021/11/18 00:09:23;0.00;0.00;0.62;0.00;0.00;0.62;2.43;1.20;;;22.00;28.40;;;;;;2237896;62;20587;-65
2021/11/18 00:12:10;0.00;0.00;0.62;0.00;0.00;0.62;1.57;1.13;;;22.00;28.40;;;;;;2237980;62;20416;-65
2021/11/18 00:14:55;0.00;0.00;0.62;0.00;0.00;0.62;1.73;1.20;;;22.00;28.40;;;;;;2237891;62;20367;-65
2021/11/18 00:17:40;0.00;0.00;0.62;0.00;0.00;0.62;1.70;0.93;;;22.00;28.40;;;;;;2236913;62;20738;-65
2021/11/18 00:20:30;0.00;0.00;0.62;0.00;0.00;0.62;2.53;1.57;;;22.00;28.40;;;;;;2237996;62;20360;-65
2021/11/18 00:23:15;0.00;0.00;0.62;0.00;0.00;0.62;1.40;1.03;;;22.00;28.40;;;;;;2238146;62;20655;-65
2021/11/18 00:26:00;0.00;0.00;0.62;0.00;0.00;0.62;2.57;1.33;;;22.00;28.40;;;;;;2236785;62;20436;-66
2021/11/18 00:28:46;0.00;0.00;0.62;0.00;0.00;0.62;3.73;1.40;;;22.00;28.50;;;;;;2238064;62;20376;-65
2021/11/18 00:31:35;0.00;0.00;0.62;0.00;0.00;0.62;1.97;1.43;;;22.00;28.50;;;;;;2237733;62;20403;-65
2021/11/18 00:34:20;0.00;0.00;0.62;0.00;0.00;0.62;2.00;1.27;;;22.00;28.50;;;;;;2238093;62;20371;-65
2021/11/18 00:37:05;0.00;0.00;0.62;0.00;0.00;0.62;2.17;1.47;;;22.00;28.50;;;;;;2237716;62;20790;-65
2021/11/18 00:39:50;0.00;0.00;0.62;0.00;0.00;0.62;2.17;1.30;;;22.00;28.40;;;;;;2236502;62;20431;-64
2021/11/18 00:42:35;0.00;0.00;0.62;0.00;0.00;0.62;2.33;1.40;;;22.00;28.50;;;;;;2234990;62;20382;-64
2021/11/18 00:45:24;0.00;0.00;0.62;0.00;0.00;0.62;2.60;1.47;;;22.10;28.50;;;;;;2237755;62;20611;-65
2021/11/18 00:48:11;0.00;0.00;0.62;0.00;0.00;0.62;1.80;1.33;;;22.00;28.50;;;;;;2236954;62;20383;-64
2021/11/18 00:50:58;0.00;0.00;0.62;0.00;0.00;0.62;2.00;1.23;;;22.10;28.50;;;;;;2237219;62;20484;-65
2021/11/18 00:53:46;0.00;0.00;0.62;0.00;0.00;0.62;1.60;1.00;;;22.00;28.50;;;;;;2237622;62;20358;-65
2021/11/18 00:56:35;0.00;0.00;0.62;0.00;0.00;0.62;1.90;1.30;;;22.10;28.50;;;;;;2237493;62;20367;-65
2021/11/18 00:59:20;0.00;0.00;0.62;0.00;0.00;0.62;3.20;1.50;;;22.10;28.50;;;;;;2237370;62;20374;-67
2021/11/18 01:02:07;0.00;0.00;0.62;0.00;0.00;0.62;3.20;1.50;;;22.10;28.50;;;;;;2236334;62;20388;-65
2021/11/18 01:04:53;0.00;0.00;0.62;0.00;0.00;0.62;2.63;1.70;;;22.10;28.50;;;;;;2237614;62;20415;-65
2021/11/18 01:07:37;0.00;0.00;0.62;0.00;0.00;0.62;2.50;1.80;;;22.10;28.40;;;;;;2237648;62;20603;-65
2021/11/18 01:10:24;0.00;0.00;0.62;0.00;0.00;0.62;4.23;2.00;;;22.00;28.30;;;;;;2236940;62;20367;-65
2021/11/18 01:13:10;0.00;0.00;0.62;0.00;0.00;0.62;2.60;1.20;;;22.00;28.30;;;;;;2237361;62;20775;-65
2021/11/18 01:15:55;0.00;0.00;0.62;0.00;0.00;0.62;5.10;3.00;;;22.00;28.20;;;;;;2237097;62;20571;-65
2021/11/18 01:18:41;0.00;0.00;0.62;0.00;0.00;0.62;4.03;2.37;;;22.00;28.10;;;;;;2237569;62;20415;-65
2021/11/18 01:21:28;0.00;0.00;0.62;0.00;0.00;0.62;3.70;2.23;;;22.00;28.00;;;;;;2237166;62;20456;-65
2021/11/18 01:24:14;0.00;0.00;0.62;0.00;0.00;0.62;4.13;2.30;;;22.00;28.00;;;;;;2236978;62;20387;-65
2021/11/18 01:27:18;0.00;0.00;0.62;0.00;0.00;0.62;3.73;2.67;;;22.00;28.00;;;;;;2237663;62;20407;-65
2021/11/18 01:30:05;0.00;0.00;0.62;0.00;0.00;0.62;6.50;2.60;;;21.90;27.90;;;;;;2237706;62;20431;-65
2021/11/18 01:32:53;0.00;0.00;0.62;0.00;0.00;0.62;4.30;2.30;;;21.90;27.90;;;;;;2236869;62;20412;-64
2021/11/18 01:35:47;0.00;0.00;0.62;0.00;0.00;0.62;6.10;3.03;;;21.80;27.90;;;;;;2237162;62;20586;-66
2021/11/18 01:38:35;0.00;0.00;0.62;0.00;0.00;0.62;5.83;2.63;;;21.80;27.90;;;;;;2236779;62;20411;-66
2021/11/18 01:41:39;0.00;0.00;0.62;0.00;0.00;0.62;4.50;2.83;;;21.80;27.90;;;;;;2237382;62;20735;-65
2021/11/18 01:44:37;0.00;0.00;0.62;0.00;0.00;0.62;5.57;3.17;;;21.80;27.90;;;;;;2237280;62;20628;-66
2021/11/18 01:47:23;0.00;0.00;0.62;0.00;0.00;0.62;5.37;3.13;;;21.70;27.80;;;;;;2236219;62;20399;-65
2021/11/18 01:50:11;0.00;0.00;0.62;0.00;0.00;0.62;4.97;2.87;;;21.70;27.80;;;;;;2237553;62;20715;-66
2021/11/18 01:53:00;0.00;0.00;0.62;0.00;0.00;0.62;7.10;2.93;;;21.70;27.90;;;;;;2237193;62;20387;-65
2021/11/18 01:55:49;0.00;0.00;0.62;0.00;0.00;0.62;3.60;2.17;;;21.70;28.00;;;;;;2237326;62;20363;-66
2021/11/18 01:58:34;0.00;0.00;0.62;0.00;0.00;0.62;3.93;2.40;;;21.70;28.00;;;;;;2237108;62;20383;-65
2021/11/18 02:01:29;0.00;0.00;0.62;0.00;0.00;0.62;5.50;2.90;;;21.60;28.00;;;;;;2236289;62;20384;-65
2021/11/18 02:04:19;0.00;0.00;0.62;0.00;0.00;0.62;7.97;3.30;;;21.60;27.90;;;;;;2238182;62;20408;-66
2021/11/18 02:07:11;0.00;0.00;0.62;0.00;0.00;0.62;4.37;2.90;;;21.60;28.00;;;;;;2237733;62;20403;-66
2021/11/18 02:10:00;0.00;0.00;0.62;0.00;0.00;0.62;6.40;2.93;;;21.60;28.00;;;;;;2237449;62;20409;-65
2021/11/18 02:12:53;0.00;0.00;0.62;0.00;0.00;0.62;5.80;3.20;;;21.50;28.00;;;;;;2237889;62;20371;-65
2021/11/18 02:15:42;0.00;0.00;0.62;0.00;0.00;0.62;7.50;2.73;;;21.50;28.00;;;;;;2234202;62;20576;-65
2021/11/18 02:18:30;0.00;0.00;0.62;0.00;0.00;0.62;5.73;2.83;;;21.60;28.10;;;;;;2238143;62;20411;-65
2021/11/18 02:21:19;0.00;0.00;0.62;0.00;0.00;0.62;5.60;2.40;;;21.50;28.00;;;;;;2237776;62;20408;-65
2021/11/18 02:24:09;0.00;0.00;0.62;0.00;0.00;0.62;6.03;2.53;;;21.50;28.00;;;;;;2236938;62;20375;-65
2021/11/18 02:26:54;0.00;0.00;0.62;0.00;0.00;0.62;6.43;3.20;;;21.50;28.00;;;;;;2237887;62;20447;-66
2021/11/18 02:29:42;0.00;0.00;0.62;0.00;0.00;0.62;5.00;2.60;;;21.50;28.00;;;;;;2237725;62;20580;-65
2021/11/18 02:32:32;0.00;0.00;0.62;0.00;0.00;0.62;8.23;2.87;;;21.40;28.00;;;;;;2237437;62;20367;-65
2021/11/18 02:35:21;0.00;0.00;0.62;0.00;0.00;0.62;4.97;2.50;;;21.40;28.00;;;;;;2237835;62;20382;-65
2021/11/18 02:38:07;0.00;0.00;0.62;0.00;0.00;0.62;4.63;2.43;;;21.40;28.00;;;;;;2236811;62;20412;-65
2021/11/18 02:40:53;0.00;0.00;0.62;0.00;0.00;0.62;5.90;3.00;;;21.40;28.00;;;;;;2237974;62;20387;-65
2021/11/18 02:43:39;0.00;0.00;0.62;0.00;0.00;0.62;6.07;3.10;;;21.40;28.00;;;;;;2238166;62;20367;-65
2021/11/18 02:46:23;0.00;0.00;0.62;0.00;0.00;0.62;6.60;3.20;;;21.40;28.00;;;;;;2233984;62;20395;-66
2021/11/18 02:49:08;0.00;0.00;0.62;0.00;0.00;0.62;4.53;2.17;;;21.40;28.00;;;;;;2238051;62;20399;-65
2021/11/18 02:51:53;0.00;0.00;0.62;0.00;0.00;0.62;6.20;2.80;;;21.30;28.00;;;;;;2237692;62;20366;-65
2021/11/18 02:54:39;0.00;0.00;0.62;0.00;0.00;0.62;6.77;2.80;;;21.30;28.00;;;;;;2237252;62;20528;-65
2021/11/18 02:57:25;0.00;0.00;0.62;0.00;0.00;0.62;4.50;2.50;;;21.30;28.00;;;;;;2237621;62;20383;-65
2021/11/18 03:00:15;0.00;0.00;0.62;0.00;0.00;0.62;4.40;2.53;;;21.30;28.00;;;;;;2237088;62;20407;-65
2021/11/18 03:03:00;0.00;0.00;0.62;0.00;0.00;0.62;8.70;4.03;;;21.30;28.00;;;;;;2237867;62;20478;-66
2021/11/18 03:05:46;0.00;0.00;0.62;0.00;0.00;0.62;8.50;3.70;;;21.30;28.40;;;;;;2237897;62;20827;-66
2021/11/18 03:08:32;0.00;0.00;0.62;0.00;0.00;0.62;7.17;3.30;;;21.20;27.80;;;;;;2236732;62;20434;-65
2021/11/18 03:11:21;0.00;0.00;0.62;0.00;0.00;0.62;8.07;3.10;;;21.20;27.70;;;;;;2237932;62;20764;-65
2021/11/18 03:14:07;0.00;0.00;0.62;0.00;0.00;0.62;5.50;2.90;;;21.20;27.80;;;;;;2237877;62;20375;-65
2021/11/18 03:17:03;0.00;0.00;0.62;0.00;0.00;0.62;5.60;2.60;;;21.10;28.30;;;;;;2237796;62;20415;-65
2021/11/18 03:20:12;0.00;0.00;0.62;0.00;0.00;0.62;6.90;2.93;;;21.10;27.90;;;;;;2237910;62;20383;-65
2021/11/18 03:22:58;0.00;0.00;0.62;0.00;0.00;0.62;7.33;2.30;;;21.10;28.00;;;;;;2236799;62;20688;-65
2021/11/18 03:25:44;0.00;0.00;0.62;0.00;0.00;0.62;6.57;3.07;;;21.10;28.00;;;;;;2238089;62;20468;-65
2021/11/18 03:28:38;0.00;0.00;0.62;0.00;0.00;0.62;6.73;2.47;;;21.10;28.00;;;;;;2237724;62;20391;-65
2021/11/18 03:31:23;0.00;0.00;0.62;0.00;0.00;0.62;3.53;2.13;;;21.10;28.00;;;;;;2237617;62;20756;-65
2021/11/18 03:34:12;0.00;0.00;0.62;0.00;0.00;0.62;6.00;2.70;;;21.00;27.90;;;;;;2237499;62;20391;-65
2021/11/18 03:36:59;0.00;0.00;0.62;0.00;0.00;0.62;3.33;2.20;;;21.10;28.00;;;;;;2236603;62;20497;-65
2021/11/18 03:39:44;0.00;0.00;0.62;0.00;0.00;0.62;4.60;2.47;;;21.10;28.00;;;;;;2237801;62;20368;-65
2021/11/18 03:42:28;0.00;0.00;0.62;0.00;0.00;0.62;4.77;2.43;;;21.10;28.00;;;;;;2237580;62;20496;-64
2021/11/18 03:45:19;0.00;0.00;0.62;0.00;0.00;0.62;7.43;2.80;;;21.10;28.10;;;;;;2237040;62;20371;-65
2021/11/18 03:48:06;0.00;0.00;0.62;0.00;0.00;0.62;7.90;2.50;;;21.00;28.00;;;;;;2237704;62;20750;-65
2021/11/18 03:50:55;0.00;0.00;0.62;0.00;0.00;0.62;3.77;2.00;;;21.10;28.00;;;;;;2237811;62;20411;-65
2021/11/18 03:53:41;0.00;0.00;0.62;0.00;0.00;0.62;4.47;2.60;;;21.10;28.10;;;;;;2237084;62;20791;-65
2021/11/18 03:56:33;0.00;0.00;0.62;0.00;0.00;0.62;4.07;3.00;;;21.00;28.00;;;;;;2237447;62;20363;-65
2021/11/18 03:59:21;0.00;0.00;0.62;0.00;0.00;0.62;5.63;2.20;;;21.00;28.00;;;;;;2236579;62;20371;-65
2021/11/18 04:02:07;0.00;0.00;0.62;0.00;0.00;0.62;5.33;2.73;;;21.00;28.00;;;;;;2237612;62;20372;-65
2021/11/18 04:04:59;0.00;0.00;0.62;0.00;0.00;0.62;7.23;2.90;;;21.00;28.00;;;;;;2237599;62;20370;-65
2021/11/18 04:07:45;0.00;0.00;0.62;0.00;0.00;0.62;8.37;3.53;;;21.00;28.10;;;;;;2236412;62;20422;-65
2021/11/18 04:10:33;0.00;0.00;0.62;0.00;0.00;0.62;6.83;3.00;;;21.00;28.10;;;;;;2237748;62;20372;-65
2021/11/18 04:13:18;0.00;0.00;0.62;0.00;0.00;0.62;6.43;3.30;;;21.00;28.10;;;;;;2237401;62;20371;-66
2021/11/18 04:16:05;0.00;0.00;0.62;0.00;0.00;0.62;7.90;3.37;;;21.00;28.10;;;;;;2236845;62;20723;-65
2021/11/18 04:18:52;0.00;0.00;0.62;0.00;0.00;0.62;5.97;2.43;;;20.90;28.10;;;;;;2237321;62;20371;-65
2021/11/18 04:21:40;0.00;0.00;0.62;0.00;0.00;0.62;6.80;3.00;;;20.90;28.10;;;;;;2236560;62;20711;-66
2021/11/18 04:24:32;0.00;0.00;0.62;0.00;0.00;0.62;6.07;3.00;;;20.90;28.20;;;;;;2237518;62;20367;-65
2021/11/18 04:27:17;0.00;0.00;0.62;0.00;0.00;0.62;6.67;3.20;;;20.90;28.70;;;;;;2237305;62;20813;-65
2021/11/18 04:30:06;0.00;0.00;0.62;0.00;0.00;0.62;6.70;3.63;;;20.90;28.20;;;;;;2236917;62;20375;-65
2021/11/18 04:32:50;0.00;0.00;0.62;0.00;0.00;0.62;3.97;2.77;;;20.90;28.30;;;;;;2237560;62;20743;-66
2021/11/18 04:35:37;0.00;0.00;0.62;0.00;0.00;0.62;5.60;3.20;;;20.90;28.30;;;;;;2237053;62;20363;-66
2021/11/18 04:38:22;0.00;0.00;0.62;0.00;0.00;0.62;5.67;3.07;;;20.90;28.30;;;;;;2237475;62;20390;-64
2021/11/18 04:41:08;0.00;0.00;0.62;0.00;0.00;0.62;6.13;3.50;;;20.90;28.30;;;;;;2237325;62;20425;-65
2021/11/18 04:43:57;0.00;0.00;0.62;0.00;0.00;0.62;4.23;2.40;;;20.90;28.30;;;;;;2236441;62;20387;-66
2021/11/18 04:46:42;0.00;0.00;0.62;0.00;0.00;0.62;4.80;2.50;;;20.90;28.40;;;;;;2237424;62;20843;-65
2021/11/18 04:49:27;0.00;0.00;0.62;0.00;0.00;0.62;8.57;3.00;;;20.90;28.30;;;;;;2237226;62;20727;-65
2021/11/18 04:52:17;0.00;0.00;0.62;0.00;0.00;0.62;7.40;3.30;;;20.80;28.30;;;;;;2236508;62;20371;-66
2021/11/18 04:55:06;0.00;0.00;0.62;0.00;0.00;0.62;6.87;3.73;;;20.80;28.30;;;;;;2237474;62;20379;-64
2021/11/18 04:57:50;0.00;0.00;0.62;0.00;0.00;0.62;6.67;3.63;;;20.80;28.30;;;;;;2237071;62;20653;-65
2021/11/18 05:00:39;0.00;0.00;0.62;0.00;0.00;0.62;8.20;3.47;;;20.80;28.30;;;;;;2237476;62;20364;-65
2021/11/18 05:03:27;0.00;0.00;0.62;0.00;0.00;0.62;5.60;3.50;;;20.80;28.30;;;;;;2237347;62;20442;-65
2021/11/18 05:06:15;0.00;0.00;0.62;0.00;0.00;0.62;5.60;2.70;;;20.80;28.30;;;;;;2236298;62;20624;-65
2021/11/18 05:09:03;0.00;0.00;0.62;0.00;0.00;0.62;5.70;3.23;;;20.80;28.40;;;;;;2237553;62;20423;-65
2021/11/18 05:11:49;0.00;0.00;0.62;0.00;0.00;0.62;7.10;3.33;;;20.80;28.40;;;;;;2237332;62;20371;-66
2021/11/18 05:14:35;0.00;0.00;0.62;0.00;0.00;0.62;6.87;3.40;;;20.70;28.30;;;;;;2236551;62;20367;-65
2021/11/18 05:17:20;0.00;0.00;0.62;0.00;0.00;0.62;7.80;3.30;;;20.70;28.30;;;;;;2237540;62;20387;-65
2021/11/18 05:20:06;0.00;0.00;0.62;0.00;0.00;0.62;5.40;3.43;;;20.70;28.40;;;;;;2237496;62;20411;-65
2021/11/18 05:22:53;0.00;0.00;0.62;0.00;0.00;0.62;5.80;2.37;;;20.70;28.90;;;;;;2237580;62;20703;-65
2021/11/18 05:25:39;0.00;0.00;0.62;0.00;0.00;0.62;6.50;3.60;;;20.70;28.40;;;;;;2237504;62;20497;-65
2021/11/18 05:28:25;0.00;0.00;0.62;0.00;0.00;0.62;9.37;3.37;;;20.70;28.40;;;;;;2236435;62;20394;-65
2021/11/18 05:31:12;0.00;0.00;0.62;0.00;0.00;0.62;5.53;3.30;;;20.70;28.40;;;;;;2237384;62;20427;-65
2021/11/18 05:34:05;0.00;0.00;0.62;0.00;0.00;0.62;7.30;3.20;;;20.70;28.40;;;;;;2237323;62;20372;-65
2021/11/18 05:36:54;0.00;0.00;0.62;0.00;0.00;0.62;7.17;3.70;;;20.70;28.40;;;;;;2236780;62;20648;-65
2021/11/18 05:39:39;0.00;0.00;0.62;0.00;0.00;0.62;5.17;2.80;;;20.60;28.40;;;;;;2237844;62;20447;-65
2021/11/18 05:42:26;0.00;0.00;0.62;0.00;0.00;0.62;7.60;3.63;;;20.60;28.40;;;;;;2237879;62;20845;-66
2021/11/18 05:45:16;0.00;0.00;0.62;0.00;0.00;0.62;10.27;4.30;;;20.60;28.40;;;;;;2238143;62;20364;-67
2021/11/18 05:48:15;0.00;0.00;0.62;0.00;0.00;0.62;8.27;4.63;;;20.60;28.40;;;;;;2237895;62;20391;-66
2021/11/18 05:51:01;0.00;0.00;0.62;0.00;0.00;0.62;7.80;4.10;;;20.60;28.40;;;;;;2237471;62;20371;-65
2021/11/18 05:53:48;0.00;0.00;0.62;0.00;0.00;0.62;7.40;4.27;;;20.50;28.40;;;;;;2237981;62;20370;-65
2021/11/18 05:56:33;0.00;0.00;0.62;0.00;0.00;0.62;8.13;3.80;;;20.40;28.40;;;;;;2237842;62;20426;-65
2021/11/18 05:59:19;0.00;0.00;0.62;0.00;0.00;0.62;7.80;4.20;;;20.40;28.50;;;;;;2237436;62;20420;-65
2021/11/18 06:02:05;0.00;0.00;0.62;0.00;0.00;0.62;9.33;4.30;;;20.40;28.60;;;;;;2237744;62;20488;-65
2021/11/18 06:04:51;0.00;0.00;0.62;0.00;0.00;0.62;5.73;3.77;;;20.40;28.60;;;;;;2237051;62;20414;-65
2021/11/18 06:07:37;0.00;0.00;0.62;0.00;0.00;0.62;7.70;3.30;;;20.30;28.60;;;;;;2237746;62;20399;-66
2021/11/18 06:10:24;0.00;0.00;0.62;0.00;0.00;0.62;7.27;3.60;;;20.30;28.60;;;;;;2237929;62;20771;-65
2021/11/18 06:13:12;0.00;0.00;0.62;0.00;0.00;0.62;9.80;3.60;;;20.30;28.60;;;;;;2236859;62;20443;-65
2021/11/18 06:15:59;0.00;0.00;0.62;0.00;0.00;0.62;8.27;4.10;;;20.30;28.60;;;;;;2238012;62;20368;-65
2021/11/18 06:18:43;0.00;0.00;0.62;0.00;0.00;0.62;8.87;4.13;;;20.30;29.20;;;;;;2238259;62;20366;-65
2021/11/18 06:21:29;0.00;0.00;0.62;0.00;0.00;0.62;6.30;3.07;;;20.30;28.70;;;;;;2237178;62;20383;-65
2021/11/18 06:24:16;0.00;0.00;0.62;0.00;0.00;0.62;7.30;3.70;;;20.30;28.70;;;;;;2237904;62;20411;-65
2021/11/18 06:27:09;0.00;0.00;0.62;0.00;0.00;0.62;6.60;5.20;;;20.30;28.70;;;;;;2236593;62;20395;-66
2021/11/18 06:29:54;0.00;0.00;0.62;0.00;0.00;0.62;9.90;4.37;;;20.30;28.70;;;;;;2238104;62;20484;-65
2021/11/18 06:32:41;0.00;0.00;0.62;0.00;0.00;0.62;8.23;4.10;;;20.20;28.70;;;;;;2237823;62;20368;-65
2021/11/18 06:35:27;0.00;0.00;0.62;0.00;0.00;0.62;5.77;4.37;;;20.20;28.70;;;;;;2236668;62;20440;-65
2021/11/18 06:38:12;0.00;0.00;0.62;0.00;0.00;0.62;5.90;4.23;;;20.20;28.70;;;;;;2238089;62;20428;-66
2021/11/18 06:40:57;0.00;0.00;0.62;0.00;0.00;0.62;8.73;4.67;;;20.20;28.70;;;;;;2237753;62;20371;-65
2021/11/18 06:43:44;0.00;0.00;0.62;0.00;0.00;0.62;7.47;4.47;;;20.20;28.80;;;;;;2237795;62;20571;-69
2021/11/18 06:46:34;0.00;0.00;0.62;0.00;0.00;0.62;11.43;5.90;;;20.20;28.80;;;;;;2237535;62;20411;-69
2021/11/18 06:49:21;0.00;0.00;0.62;0.00;0.00;0.62;9.00;5.20;;;20.20;28.80;;;;;;2236633;62;20685;-69
2021/11/18 06:52:08;0.00;0.00;0.62;0.00;0.00;0.62;8.20;5.40;;;20.20;29.40;;;;;;2238043;62;20390;-64
2021/11/18 06:54:53;0.00;0.00;0.62;0.00;0.00;0.62;7.80;4.03;;;20.20;29.00;;;;;;2237722;62;20765;-65
2021/11/18 06:57:38;0.00;0.00;0.62;0.00;0.00;0.62;7.93;4.27;;;20.10;28.90;;;;;;2236874;62;20420;-66
2021/11/18 07:00:23;0.00;0.00;0.62;0.00;0.00;0.62;9.37;4.63;;;20.10;28.90;;;;;;2237889;62;20480;-66
2021/11/18 07:03:09;0.00;0.00;0.62;0.00;0.00;0.62;12.30;5.10;;;20.10;28.90;;;;;;2237837;62;20359;-67
2021/11/18 07:05:56;0.00;0.00;0.62;0.00;0.00;0.62;10.97;5.20;;;20.10;29.00;;;;;;2237311;62;20431;-67
2021/11/18 07:08:42;0.00;0.00;0.62;0.00;0.00;0.62;7.17;5.00;;;20.10;29.50;;;;;;2237619;62;20816;-66
2021/11/18 07:11:27;0.00;0.00;0.62;0.00;0.00;0.62;7.73;5.43;;;20.10;29.00;;;;;;2236754;62;20371;-65
2021/11/18 07:14:13;0.00;0.00;0.62;0.00;0.00;0.62;5.63;4.60;;;20.10;29.10;;;;;;2237977;62;20635;-67
2021/11/18 07:16:58;0.00;0.00;0.62;0.00;0.00;0.62;8.83;4.93;;;20.10;29.10;;;;;;2238065;62;20608;-69
2021/11/18 07:19:42;0.00;0.00;0.62;0.00;0.00;0.62;12.00;4.83;;;20.00;29.10;;;;;;2236214;62;20647;-63
2021/11/18 07:22:30;0.00;0.00;0.62;0.00;0.00;0.62;8.00;4.73;;;20.00;29.10;;;;;;2240670;62;20411;-61
2021/11/18 07:25:28;0.00;0.00;0.62;0.00;0.00;0.62;10.57;5.40;;;20.00;29.10;;;;;;2239785;62;20708;-68
2021/11/18 07:28:15;0.00;0.00;0.62;0.00;0.00;0.62;8.53;5.20;;;20.00;29.20;;;;;;2236729;62;20439;-66
2021/11/18 07:31:01;0.00;0.00;0.62;0.00;0.00;0.62;8.17;4.27;;;20.00;29.20;;;;;;2235015;62;20383;-67
2021/11/18 07:33:49;0.00;0.00;0.62;0.00;0.00;0.62;9.60;5.80;;;20.00;29.20;;;;;;2236154;62;20614;-67
2021/11/18 07:36:33;0.00;0.00;0.62;0.00;0.00;0.62;9.90;5.60;;;20.00;29.30;;;;;;2234230;62;20407;-66
2021/11/18 07:39:22;0.00;0.00;0.62;0.00;0.00;0.62;9.90;5.10;;;20.00;29.30;;;;;;2236637;62;20392;-65
2021/11/18 07:42:08;0.00;0.00;0.62;0.00;0.00;0.62;9.50;5.80;;;20.00;29.40;;;;;;2236667;62;20645;-63
2021/11/18 07:45:15;0.00;0.00;0.62;0.00;0.00;0.62;9.10;5.60;;;20.00;29.40;;;;;;2237789;62;20371;-63
2021/11/18 07:48:00;0.00;0.00;0.62;0.00;0.00;0.62;6.20;4.37;;;20.00;29.40;;;;;;2237907;62;20379;-62
2021/11/18 07:50:48;0.00;0.00;0.62;0.00;0.00;0.62;14.33;4.67;;;20.00;29.40;;;;;;2745434;46;20352;-65
2021/11/18 07:53:34;0.00;0.00;0.62;0.00;0.00;0.62;9.57;5.70;;;20.00;29.40;;;;;;2236554;62;20394;-66
2021/11/18 07:56:24;0.00;0.00;0.62;0.00;0.00;0.62;7.53;6.30;;;20.00;29.40;;;;;;2236803;62;20363;-66
2021/11/18 07:59:09;0.00;0.00;0.62;0.00;0.00;0.62;12.70;6.10;;;20.00;29.40;;;;;;2237337;62;20371;-69
2021/11/18 08:01:55;0.00;0.00;0.62;0.00;0.00;0.62;5.83;4.30;;;20.00;29.40;;;;;;2233149;62;20371;-68
2021/11/18 08:04:40;0.00;0.00;0.62;0.00;0.00;0.62;6.23;3.87;;;20.00;29.50;;;;;;2236625;62;20581;-68
2021/11/18 08:07:25;0.00;0.00;0.62;0.00;0.00;0.62;4.63;3.67;;;20.00;29.40;;;;;;2234307;62;20415;-66
2021/11/18 08:10:13;0.00;0.00;0.62;0.00;0.00;0.62;5.73;4.20;;;20.10;29.50;;;;;;2373340;54;20379;-67
2021/11/18 08:13:10;0.00;0.00;0.62;0.00;0.00;0.62;7.70;3.40;;;20.10;29.50;;;;;;2238749;62;20423;-66
2021/11/18 08:15:58;0.00;0.00;0.62;0.00;0.00;0.62;8.37;4.00;;;20.10;29.50;;;;;;2237224;62;20371;-68
2021/11/18 08:18:46;0.00;0.00;0.62;0.00;0.00;0.62;9.33;4.97;;;20.20;29.60;;;;;;2238214;62;20373;-68
2021/11/18 08:21:33;0.00;0.00;0.62;0.00;0.00;0.62;4.53;3.37;;;20.20;29.60;;;;;;2238453;62;20366;-68
2021/11/18 08:24:23;0.00;0.00;0.62;0.00;0.00;0.62;4.90;3.50;;;20.20;29.60;;;;;;2238395;62;20443;-63
2021/11/18 08:27:12;0.00;0.00;0.62;0.00;0.00;0.62;5.43;3.33;;;20.30;29.60;;;;;;2236837;62;20399;-66
2021/11/18 08:29:58;0.00;0.00;0.62;0.00;0.00;0.62;6.07;3.60;;;20.30;29.60;;;;;;2234325;62;20371;-65
2021/11/18 08:32:44;0.00;0.00;0.62;0.00;0.00;0.62;5.07;3.30;;;20.30;29.60;;;;;;2237263;62;20435;-65
2021/11/18 08:35:38;0.00;0.00;0.62;0.00;0.00;0.62;5.13;3.33;;;20.40;29.60;;;;;;2237383;62;20363;-68
2021/11/18 08:38:26;0.00;0.00;0.62;0.00;0.00;0.62;5.27;3.43;;;20.40;29.60;;;;;;2237113;62;20767;-63
2021/11/18 08:41:11;0.00;0.00;0.62;0.00;0.00;0.62;5.60;3.80;;;20.50;29.60;;;;;;2236620;62;20359;-69
2021/11/18 08:43:56;0.00;0.00;0.62;0.00;0.00;0.62;4.00;3.60;;;20.50;29.50;;;;;;2237226;62;20367;-68
2021/11/18 08:46:43;0.00;0.00;0.62;0.00;0.00;0.62;7.27;3.57;;;20.50;29.50;;;;;;2237211;62;20430;-64
2021/11/18 08:49:30;0.00;0.00;0.62;0.00;0.00;0.62;4.90;3.60;;;20.60;29.60;;;;;;2236886;62;20375;-65
2021/11/18 08:52:20;0.00;0.00;0.62;0.00;0.00;0.62;4.03;3.27;;;20.70;29.60;;;;;;2236992;62;20668;-64
2021/11/18 08:55:14;0.00;0.00;0.62;0.00;0.00;0.62;6.50;3.23;;;20.70;29.60;;;;;;2236597;62;20764;-67
2021/11/18 08:58:01;0.00;0.00;0.62;0.00;0.00;0.62;4.80;2.77;;;20.70;29.50;;;;;;2237524;62;20398;-68
2021/11/18 09:01:16;0.00;0.00;0.62;0.00;0.00;0.62;5.07;3.17;;;20.70;29.40;;;;;;2237628;62;20832;-67
2021/11/18 09:04:09;0.00;0.00;0.62;0.00;0.00;0.62;7.67;3.40;;;20.80;29.50;;;;;;2236741;62;20423;-68
2021/11/18 09:06:55;0.00;0.00;0.62;0.00;0.00;0.62;4.10;3.07;;;20.80;29.50;;;;;;2467347;54;20459;-67
2021/11/18 09:09:41;0.00;0.00;0.62;0.00;0.00;0.62;3.63;2.90;;;20.80;29.50;;;;;;2237155;62;20484;-66
2021/11/18 09:12:26;0.00;0.00;0.62;0.00;0.00;0.62;4.80;3.57;;;20.90;30.00;;;;;;2237755;62;20482;-67
2021/11/18 09:15:15;0.00;0.00;0.62;0.00;0.00;0.62;5.53;3.33;;;20.90;29.50;;;;;;2236950;62;20370;-64
2021/11/18 09:18:01;0.00;0.00;0.62;0.00;0.00;0.62;4.17;3.40;;;20.90;29.60;;;;;;2236405;62;20383;-69
2021/11/18 09:21:00;0.00;0.00;0.62;0.00;0.00;0.62;9.87;4.10;;;21.00;29.60;;;;;;2237003;62;20375;-69
2021/11/18 09:23:50;0.00;0.00;0.62;0.00;0.00;0.62;8.83;3.63;;;21.00;29.50;;;;;;2237206;62;20817;-69
2021/11/18 09:26:39;0.00;0.00;0.62;0.00;0.00;0.62;7.77;4.30;;;21.00;29.50;;;;;;2236473;62;20992;-69
2021/11/18 09:29:26;0.00;0.00;0.62;0.00;0.00;0.62;4.93;3.67;;;21.00;29.50;;;;;;2236936;62;20579;-71
2021/11/18 09:32:21;0.00;0.00;0.62;0.00;0.00;0.62;6.00;4.47;;;21.10;29.50;;;;;;2236651;62;20404;-68
2021/11/18 09:35:25;0.00;0.00;0.62;0.00;0.00;0.62;6.27;4.70;;;21.10;29.50;;;;;;2237349;62;20359;-68
2021/11/18 09:38:14;0.00;0.00;0.62;0.00;0.00;0.62;6.47;4.07;;;21.10;29.40;;;;;;2237109;62;20379;-70
2021/11/18 09:41:15;0.00;0.00;0.62;0.00;0.00;0.62;5.57;3.77;;;21.20;29.50;;;;;;2236286;62;20371;-67
2021/11/18 09:44:49;0.00;0.00;0.62;0.00;0.00;0.62;6.50;4.27;;;21.20;29.50;;;;;;2236767;62;20383;-67
2021/11/18 09:48:27;0.00;0.00;0.62;0.00;0.00;0.62;4.73;3.17;;;21.20;29.60;;;;;;2236301;62;20658;-69
2021/11/18 09:51:56;0.00;0.00;0.62;0.00;0.00;0.62;6.77;3.87;;;21.20;29.50;;;;;;2236761;62;20371;-68
2021/11/18 09:55:00;0.00;0.00;0.62;0.00;0.00;0.62;6.43;3.43;;;21.20;29.40;;;;;;2236387;62;20424;-68
2021/11/18 09:58:04;0.00;0.00;0.62;0.00;0.00;0.62;4.30;3.20;;;21.30;29.50;;;;;;2236840;62;20763;-68
2021/11/18 10:01:04;0.00;0.00;0.62;0.00;0.00;0.62;6.47;3.10;;;21.30;29.50;;;;;;2237089;62;20585;-71
2021/11/18 10:03:56;0.00;0.00;0.62;0.00;0.00;0.62;3.50;2.97;;;21.30;29.40;;;;;;2236714;62;20395;-69
2021/11/18 10:06:41;0.00;0.00;0.62;0.00;0.00;0.62;4.63;3.60;;;21.30;29.40;;;;;;2236520;62;20399;-68
2021/11/18 10:09:42;0.00;0.00;0.62;0.00;0.00;0.62;5.53;3.10;;;21.40;29.40;;;;;;2236478;62;20356;-70
2021/11/18 10:12:49;0.00;0.00;0.62;0.00;0.00;0.62;3.50;2.83;;;21.40;29.40;;;;;;2237245;62;20367;-69
2021/11/18 10:15:39;0.00;0.00;0.62;0.00;0.00;0.62;3.30;2.63;;;21.40;29.40;;;;;;2236891;62;20829;-69
2021/11/18 10:18:33;0.00;0.00;0.62;0.00;0.00;0.62;4.47;3.47;;;21.40;29.30;;;;;;2236522;62;20379;-71
2021/11/18 10:21:21;0.00;0.00;0.62;0.00;0.00;0.62;3.53;2.30;;;21.40;29.30;;;;;;2236683;62;20411;-68
2021/11/18 10:24:13;0.00;0.00;0.62;0.00;0.00;0.62;3.83;3.00;;;21.40;29.30;;;;;;2237343;62;20363;-70
2021/11/18 10:27:10;0.00;0.00;0.62;0.00;0.00;0.62;4.20;2.77;;;21.50;29.40;;;;;;2237915;62;20435;-70
2021/11/18 10:30:15;0.00;0.00;0.62;0.00;0.00;0.62;4.60;2.97;;;21.50;29.40;;;;;;2237670;62;20439;-71
2021/11/18 10:33:05;0.00;0.00;0.62;0.00;0.00;0.62;3.70;2.63;;;21.50;29.30;;;;;;2236381;62;20363;-69
2021/11/18 10:36:08;0.00;0.00;0.62;0.00;0.00;0.62;3.70;2.80;;;21.60;29.40;;;;;;2237700;62;20367;-70
2021/11/18 10:39:01;0.00;0.00;0.62;0.00;0.00;0.62;2.97;2.50;;;21.60;29.30;;;;;;2237528;62;20434;-72
2021/11/18 10:41:54;0.00;0.00;0.62;0.00;0.00;0.62;5.23;2.77;;;21.60;29.30;;;;;;2238212;62;20367;-69
2021/11/18 10:44:47;0.00;0.00;0.62;0.00;0.00;0.62;4.30;3.07;;;21.70;29.30;;;;;;2238282;62;20367;-71
2021/11/18 10:47:39;0.00;0.00;0.62;0.00;0.00;0.62;3.97;2.90;;;21.70;29.20;;;;;;2237172;62;20808;-71
2021/11/18 10:50:35;0.00;0.00;0.62;0.00;0.00;0.62;3.20;2.90;;;21.70;29.20;;;;;;2238230;62;20373;-69
2021/11/18 10:53:23;0.00;0.00;0.62;0.00;0.00;0.62;4.70;3.20;;;21.80;29.20;;;;;;2237889;62;20372;-70
2021/11/18 10:56:11;0.00;0.00;0.62;0.00;0.00;0.62;3.47;2.80;;;21.80;29.20;;;;;;2237719;62;20360;-70
2021/11/18 10:59:04;0.00;0.00;0.62;0.00;0.00;0.62;3.40;2.57;;;21.80;29.10;;;;;;2238085;62;20371;-70
2021/11/18 11:01:53;0.00;0.00;0.62;0.00;0.00;0.62;3.80;2.67;;;21.80;29.10;;;;;;2237319;62;20359;-69
2021/11/18 11:04:42;0.00;0.00;0.62;0.00;0.00;0.62;3.40;2.30;;;21.90;29.20;;;;;;2238047;62;20432;-68
2021/11/18 11:07:38;0.00;0.00;0.62;0.00;0.00;0.62;3.57;2.43;;;21.90;29.10;;;;;;2238080;62;20407;-70